sensor_id;sensor_type;location;lat;lon;timestamp;P1;durP1;ratioP1;P2;durP2;ratioP2
2548;SDS011;1284;53.520;10.248;2023-08-06T00:02:18;0.95;;;0.50;;
2548;SDS011;1284;53.520;10.248;2023-08-06T00:04:43;1.10;;;0.70;;
2548;SDS011;1284;53.520;10.248;2023-08-06T00:07:08;0.85;;;0.63;;
2548;SDS011;1284;53.520;10.248;2023-08-06T00:09:34;1.05;;;0.60;;
2548;SDS011;1284;53.520;10.248;2023-08-06T00:11:59;0.80;;;0.40;;
2548;SDS011;1284;53.520;10.248;2023-08-06T00:14:28;0.85;;;0.60;;
2548;SDS011;1284;53.520;10.248;2023-08-06T00:16:53;0.50;;;0.40;;
2548;SDS011;1284;53.520;10.248;2023-08-06T00:19:18;0.68;;;0.40;;
2548;SDS011;1284;53.520;10.248;2023-08-06T00:21:44;1.92;;;0.75;;
2548;SDS011;1284;53.520;10.248;2023-08-06T00:24:09;0.52;;;0.35;;
2548;SDS011;1284;53.520;10.248;2023-08-06T00:26:34;0.98;;;0.82;;
2548;SDS011;1284;53.520;10.248;2023-08-06T00:29:00;2.10;;;0.63;;
2548;SDS011;1284;53.520;10.248;2023-08-06T00:31:25;4.18;;;0.63;;
2548;SDS011;1284;53.520;10.248;2023-08-06T00:33:51;0.40;;;0.40;;
2548;SDS011;1284;53.520;10.248;2023-08-06T00:36:16;1.20;;;0.80;;
2548;SDS011;1284;53.520;10.248;2023-08-06T00:38:41;0.73;;;0.50;;
2548;SDS011;1284;53.520;10.248;2023-08-06T00:41:08;0.88;;;0.60;;
2548;SDS011;1284;53.520;10.248;2023-08-06T00:43:33;0.70;;;0.65;;
2548;SDS011;1284;53.520;10.248;2023-08-06T00:45:59;1.38;;;0.73;;
2548;SDS011;1284;53.520;10.248;2023-08-06T00:48:25;1.27;;;0.55;;
2548;SDS011;1284;53.520;10.248;2023-08-06T00:50:51;2.72;;;0.85;;
2548;SDS011;1284;53.520;10.248;2023-08-06T00:53:17;1.17;;;0.77;;
2548;SDS011;1284;53.520;10.248;2023-08-06T00:55:43;1.70;;;0.73;;
2548;SDS011;1284;53.520;10.248;2023-08-06T00:58:10;0.75;;;0.60;;
2548;SDS011;1284;53.520;10.248;2023-08-06T01:00:36;0.73;;;0.50;;
2548;SDS011;1284;53.520;10.248;2023-08-06T01:03:03;1.98;;;0.60;;
2548;SDS011;1284;53.520;10.248;2023-08-06T01:05:28;1.40;;;0.73;;
2548;SDS011;1284;53.520;10.248;2023-08-06T01:13:18;0.93;;;0.80;;
2548;SDS011;1284;53.520;10.248;2023-08-06T01:15:46;1.38;;;0.70;;
2548;SDS011;1284;53.520;10.248;2023-08-06T01:18:15;1.05;;;0.93;;
2548;SDS011;1284;53.520;10.248;2023-08-06T01:20:43;1.58;;;0.80;;
2548;SDS011;1284;53.520;10.248;2023-08-06T01:23:08;1.10;;;0.75;;
2548;SDS011;1284;53.520;10.248;2023-08-06T01:25:35;0.93;;;0.55;;
2548;SDS011;1284;53.520;10.248;2023-08-06T01:31:07;1.95;;;0.95;;
2548;SDS011;1284;53.520;10.248;2023-08-06T01:33:35;1.48;;;0.95;;
2548;SDS011;1284;53.520;10.248;2023-08-06T01:36:03;1.27;;;0.85;;
2548;SDS011;1284;53.520;10.248;2023-08-06T01:38:31;1.38;;;0.85;;
2548;SDS011;1284;53.520;10.248;2023-08-06T01:40:56;0.88;;;0.70;;
2548;SDS011;1284;53.520;10.248;2023-08-06T01:43:22;2.42;;;1.10;;
2548;SDS011;1284;53.520;10.248;2023-08-06T01:45:47;1.77;;;0.95;;
2548;SDS011;1284;53.520;10.248;2023-08-06T01:48:13;0.90;;;0.70;;
2548;SDS011;1284;53.520;10.248;2023-08-06T01:50:38;0.80;;;0.60;;
2548;SDS011;1284;53.520;10.248;2023-08-06T01:53:03;1.08;;;0.60;;
2548;SDS011;1284;53.520;10.248;2023-08-06T01:55:29;1.40;;;0.77;;
2548;SDS011;1284;53.520;10.248;2023-08-06T01:57:57;1.40;;;1.08;;
2548;SDS011;1284;53.520;10.248;2023-08-06T02:00:22;1.75;;;0.85;;
2548;SDS011;1284;53.520;10.248;2023-08-06T02:02:48;2.95;;;1.20;;
2548;SDS011;1284;53.520;10.248;2023-08-06T02:05:13;1.27;;;0.80;;
2548;SDS011;1284;53.520;10.248;2023-08-06T02:07:39;1.08;;;0.60;;
2548;SDS011;1284;53.520;10.248;2023-08-06T02:10:04;1.33;;;0.90;;
2548;SDS011;1284;53.520;10.248;2023-08-06T02:12:30;1.38;;;0.82;;
2548;SDS011;1284;53.520;10.248;2023-08-06T02:14:56;1.67;;;1.08;;
2548;SDS011;1284;53.520;10.248;2023-08-06T02:17:21;6.00;;;1.33;;
2548;SDS011;1284;53.520;10.248;2023-08-06T02:19:46;2.03;;;0.95;;
2548;SDS011;1284;53.520;10.248;2023-08-06T02:22:12;3.13;;;1.08;;
2548;SDS011;1284;53.520;10.248;2023-08-06T02:24:37;1.08;;;0.82;;
2548;SDS011;1284;53.520;10.248;2023-08-06T02:27:03;2.30;;;1.08;;
2548;SDS011;1284;53.520;10.248;2023-08-06T02:29:28;0.70;;;0.60;;
2548;SDS011;1284;53.520;10.248;2023-08-06T02:31:54;0.90;;;0.80;;
2548;SDS011;1284;53.520;10.248;2023-08-06T02:34:19;1.17;;;0.77;;
2548;SDS011;1284;53.520;10.248;2023-08-06T02:36:45;1.33;;;1.13;;
2548;SDS011;1284;53.520;10.248;2023-08-06T02:39:10;2.50;;;1.25;;
2548;SDS011;1284;53.520;10.248;2023-08-06T02:41:36;1.52;;;0.90;;
2548;SDS011;1284;53.520;10.248;2023-08-06T02:44:01;2.53;;;0.88;;
2548;SDS011;1284;53.520;10.248;2023-08-06T02:46:27;2.15;;;1.02;;
2548;SDS011;1284;53.520;10.248;2023-08-06T02:48:53;0.95;;;0.60;;
2548;SDS011;1284;53.520;10.248;2023-08-06T02:51:18;0.95;;;0.77;;
2548;SDS011;1284;53.520;10.248;2023-08-06T02:53:44;1.48;;;0.90;;
2548;SDS011;1284;53.520;10.248;2023-08-06T02:56:13;0.68;;;0.68;;
2548;SDS011;1284;53.520;10.248;2023-08-06T02:58:59;1.55;;;0.90;;
2548;SDS011;1284;53.520;10.248;2023-08-06T03:01:34;2.30;;;1.00;;
2548;SDS011;1284;53.520;10.248;2023-08-06T03:04:07;2.50;;;0.98;;
2548;SDS011;1284;53.520;10.248;2023-08-06T03:06:38;0.70;;;0.60;;
2548;SDS011;1284;53.520;10.248;2023-08-06T03:09:04;1.08;;;0.80;;
2548;SDS011;1284;53.520;10.248;2023-08-06T03:11:29;1.15;;;0.80;;
2548;SDS011;1284;53.520;10.248;2023-08-06T03:14:00;0.88;;;0.70;;
2548;SDS011;1284;53.520;10.248;2023-08-06T03:16:27;1.45;;;1.00;;
2548;SDS011;1284;53.520;10.248;2023-08-06T03:18:53;1.05;;;0.93;;
2548;SDS011;1284;53.520;10.248;2023-08-06T03:21:20;1.60;;;0.88;;
2548;SDS011;1284;53.520;10.248;2023-08-06T03:23:48;0.98;;;0.73;;
2548;SDS011;1284;53.520;10.248;2023-08-06T03:26:15;1.45;;;0.73;;
2548;SDS011;1284;53.520;10.248;2023-08-06T03:28:40;2.38;;;1.20;;
2548;SDS011;1284;53.520;10.248;2023-08-06T03:31:05;2.33;;;0.90;;
2548;SDS011;1284;53.520;10.248;2023-08-06T03:33:37;1.52;;;0.80;;
2548;SDS011;1284;53.520;10.248;2023-08-06T03:36:07;1.33;;;0.70;;
2548;SDS011;1284;53.520;10.248;2023-08-06T03:38:34;1.67;;;0.90;;
2548;SDS011;1284;53.520;10.248;2023-08-06T03:41:07;1.20;;;0.80;;
2548;SDS011;1284;53.520;10.248;2023-08-06T03:43:32;1.38;;;0.73;;
2548;SDS011;1284;53.520;10.248;2023-08-06T03:45:58;1.52;;;1.05;;
2548;SDS011;1284;53.520;10.248;2023-08-06T03:48:24;2.50;;;1.17;;
2548;SDS011;1284;53.520;10.248;2023-08-06T03:50:49;0.90;;;0.90;;
2548;SDS011;1284;53.520;10.248;2023-08-06T03:53:17;1.10;;;0.95;;
2548;SDS011;1284;53.520;10.248;2023-08-06T03:55:42;1.02;;;0.85;;
2548;SDS011;1284;53.520;10.248;2023-08-06T03:58:07;2.60;;;1.00;;
2548;SDS011;1284;53.520;10.248;2023-08-06T04:00:33;1.30;;;1.00;;
2548;SDS011;1284;53.520;10.248;2023-08-06T04:02:58;2.65;;;1.00;;
2548;SDS011;1284;53.520;10.248;2023-08-06T04:05:24;1.65;;;0.90;;
2548;SDS011;1284;53.520;10.248;2023-08-06T04:07:49;0.95;;;0.60;;
2548;SDS011;1284;53.520;10.248;2023-08-06T04:10:15;1.10;;;0.82;;
2548;SDS011;1284;53.520;10.248;2023-08-06T04:12:40;1.35;;;0.60;;
2548;SDS011;1284;53.520;10.248;2023-08-06T04:15:06;1.48;;;0.85;;
2548;SDS011;1284;53.520;10.248;2023-08-06T04:17:32;0.98;;;0.68;;
2548;SDS011;1284;53.520;10.248;2023-08-06T04:19:58;1.85;;;0.77;;
2548;SDS011;1284;53.520;10.248;2023-08-06T04:22:24;1.92;;;0.85;;
2548;SDS011;1284;53.520;10.248;2023-08-06T04:24:49;1.00;;;0.60;;
2548;SDS011;1284;53.520;10.248;2023-08-06T04:27:15;1.15;;;0.80;;
2548;SDS011;1284;53.520;10.248;2023-08-06T04:29:44;1.08;;;0.55;;
2548;SDS011;1284;53.520;10.248;2023-08-06T04:32:11;2.63;;;0.95;;
2548;SDS011;1284;53.520;10.248;2023-08-06T04:34:42;2.00;;;0.98;;
2548;SDS011;1284;53.520;10.248;2023-08-06T04:37:08;1.45;;;0.80;;
2548;SDS011;1284;53.520;10.248;2023-08-06T04:39:34;2.38;;;0.73;;
2548;SDS011;1284;53.520;10.248;2023-08-06T04:42:00;2.05;;;0.82;;
2548;SDS011;1284;53.520;10.248;2023-08-06T04:44:26;2.67;;;0.70;;
2548;SDS011;1284;53.520;10.248;2023-08-06T04:46:52;3.58;;;1.35;;
2548;SDS011;1284;53.520;10.248;2023-08-06T04:49:17;1.08;;;0.60;;
2548;SDS011;1284;53.520;10.248;2023-08-06T04:51:45;1.98;;;1.10;;
2548;SDS011;1284;53.520;10.248;2023-08-06T04:54:10;1.67;;;0.90;;
2548;SDS011;1284;53.520;10.248;2023-08-06T04:56:36;1.13;;;0.68;;
2548;SDS011;1284;53.520;10.248;2023-08-06T04:59:01;2.92;;;1.40;;
2548;SDS011;1284;53.520;10.248;2023-08-06T05:01:26;2.35;;;1.00;;
2548;SDS011;1284;53.520;10.248;2023-08-06T05:03:52;2.05;;;1.05;;
2548;SDS011;1284;53.520;10.248;2023-08-06T05:06:17;5.43;;;1.45;;
2548;SDS011;1284;53.520;10.248;2023-08-06T05:08:42;1.17;;;0.80;;
2548;SDS011;1284;53.520;10.248;2023-08-06T05:11:11;1.70;;;1.13;;
2548;SDS011;1284;53.520;10.248;2023-08-06T05:13:46;0.80;;;0.80;;
2548;SDS011;1284;53.520;10.248;2023-08-06T05:16:12;6.05;;;1.00;;
2548;SDS011;1284;53.520;10.248;2023-08-06T05:18:37;1.00;;;0.75;;
2548;SDS011;1284;53.520;10.248;2023-08-06T05:21:03;2.75;;;1.00;;
2548;SDS011;1284;53.520;10.248;2023-08-06T05:23:29;2.35;;;0.68;;
2548;SDS011;1284;53.520;10.248;2023-08-06T05:25:54;1.50;;;1.02;;
2548;SDS011;1284;53.520;10.248;2023-08-06T05:28:20;2.25;;;0.90;;
2548;SDS011;1284;53.520;10.248;2023-08-06T05:30:45;2.47;;;1.30;;
2548;SDS011;1284;53.520;10.248;2023-08-06T05:33:11;2.08;;;0.98;;
2548;SDS011;1284;53.520;10.248;2023-08-06T05:35:36;1.05;;;0.90;;
2548;SDS011;1284;53.520;10.248;2023-08-06T05:38:02;2.38;;;0.88;;
2548;SDS011;1284;53.520;10.248;2023-08-06T05:40:27;1.50;;;0.90;;
2548;SDS011;1284;53.520;10.248;2023-08-06T05:42:53;1.58;;;0.80;;
2548;SDS011;1284;53.520;10.248;2023-08-06T05:45:19;1.45;;;1.00;;
2548;SDS011;1284;53.520;10.248;2023-08-06T05:47:45;1.90;;;1.10;;
2548;SDS011;1284;53.520;10.248;2023-08-06T05:50:10;2.28;;;1.20;;
2548;SDS011;1284;53.520;10.248;2023-08-06T05:52:39;0.95;;;0.73;;
2548;SDS011;1284;53.520;10.248;2023-08-06T05:55:04;2.15;;;1.00;;
2548;SDS011;1284;53.520;10.248;2023-08-06T05:57:30;2.03;;;1.13;;
2548;SDS011;1284;53.520;10.248;2023-08-06T05:59:56;2.05;;;1.23;;
2548;SDS011;1284;53.520;10.248;2023-08-06T06:02:21;1.73;;;1.10;;
2548;SDS011;1284;53.520;10.248;2023-08-06T06:04:47;2.58;;;1.23;;
2548;SDS011;1284;53.520;10.248;2023-08-06T06:07:12;4.82;;;0.93;;
2548;SDS011;1284;53.520;10.248;2023-08-06T06:09:39;2.35;;;1.63;;
2548;SDS011;1284;53.520;10.248;2023-08-06T06:12:04;1.33;;;0.82;;
2548;SDS011;1284;53.520;10.248;2023-08-06T06:14:31;1.70;;;1.05;;
2548;SDS011;1284;53.520;10.248;2023-08-06T06:16:56;1.98;;;0.85;;
2548;SDS011;1284;53.520;10.248;2023-08-06T06:19:22;1.38;;;0.80;;
2548;SDS011;1284;53.520;10.248;2023-08-06T06:21:47;1.80;;;1.27;;
2548;SDS011;1284;53.520;10.248;2023-08-06T06:24:13;1.33;;;0.73;;
2548;SDS011;1284;53.520;10.248;2023-08-06T06:26:38;2.05;;;1.15;;
2548;SDS011;1284;53.520;10.248;2023-08-06T06:29:04;3.28;;;0.98;;
2548;SDS011;1284;53.520;10.248;2023-08-06T06:31:29;2.25;;;1.20;;
2548;SDS011;1284;53.520;10.248;2023-08-06T06:33:55;1.13;;;0.95;;
2548;SDS011;1284;53.520;10.248;2023-08-06T06:36:20;1.98;;;0.90;;
2548;SDS011;1284;53.520;10.248;2023-08-06T06:38:46;1.92;;;1.15;;
2548;SDS011;1284;53.520;10.248;2023-08-06T06:41:13;1.20;;;1.02;;
2548;SDS011;1284;53.520;10.248;2023-08-06T06:43:38;1.92;;;0.88;;
2548;SDS011;1284;53.520;10.248;2023-08-06T06:46:05;1.02;;;0.93;;
2548;SDS011;1284;53.520;10.248;2023-08-06T06:48:31;3.50;;;1.23;;
2548;SDS011;1284;53.520;10.248;2023-08-06T06:50:57;1.50;;;0.85;;
2548;SDS011;1284;53.520;10.248;2023-08-06T06:53:23;2.30;;;1.40;;
2548;SDS011;1284;53.520;10.248;2023-08-06T06:55:55;2.25;;;1.35;;
2548;SDS011;1284;53.520;10.248;2023-08-06T06:58:28;2.88;;;1.27;;
2548;SDS011;1284;53.520;10.248;2023-08-06T07:00:54;1.52;;;1.20;;
2548;SDS011;1284;53.520;10.248;2023-08-06T07:03:20;1.02;;;0.80;;
2548;SDS011;1284;53.520;10.248;2023-08-06T07:05:45;2.80;;;1.15;;
2548;SDS011;1284;53.520;10.248;2023-08-06T07:08:11;1.23;;;0.90;;
2548;SDS011;1284;53.520;10.248;2023-08-06T07:10:37;3.05;;;1.30;;
2548;SDS011;1284;53.520;10.248;2023-08-06T07:13:02;4.22;;;1.60;;
2548;SDS011;1284;53.520;10.248;2023-08-06T07:15:28;2.60;;;1.17;;
2548;SDS011;1284;53.520;10.248;2023-08-06T07:17:53;2.47;;;1.20;;
2548;SDS011;1284;53.520;10.248;2023-08-06T07:20:19;2.85;;;1.60;;
2548;SDS011;1284;53.520;10.248;2023-08-06T07:22:44;3.25;;;1.52;;
2548;SDS011;1284;53.520;10.248;2023-08-06T07:25:10;4.70;;;1.35;;
2548;SDS011;1284;53.520;10.248;2023-08-06T07:27:35;5.82;;;1.45;;
2548;SDS011;1284;53.520;10.248;2023-08-06T07:30:01;1.85;;;1.15;;
2548;SDS011;1284;53.520;10.248;2023-08-06T07:32:27;2.55;;;1.35;;
2548;SDS011;1284;53.520;10.248;2023-08-06T07:34:53;2.65;;;1.15;;
2548;SDS011;1284;53.520;10.248;2023-08-06T07:37:22;2.25;;;1.30;;
2548;SDS011;1284;53.520;10.248;2023-08-06T07:39:48;1.65;;;1.23;;
2548;SDS011;1284;53.520;10.248;2023-08-06T07:42:13;2.42;;;1.25;;
2548;SDS011;1284;53.520;10.248;2023-08-06T07:44:39;3.40;;;1.42;;
2548;SDS011;1284;53.520;10.248;2023-08-06T07:47:05;2.33;;;1.20;;
2548;SDS011;1284;53.520;10.248;2023-08-06T07:49:30;3.80;;;1.20;;
2548;SDS011;1284;53.520;10.248;2023-08-06T07:51:56;1.88;;;1.13;;
2548;SDS011;1284;53.520;10.248;2023-08-06T07:54:21;2.22;;;1.67;;
2548;SDS011;1284;53.520;10.248;2023-08-06T07:56:47;3.83;;;0.98;;
2548;SDS011;1284;53.520;10.248;2023-08-06T07:59:12;2.83;;;1.35;;
2548;SDS011;1284;53.520;10.248;2023-08-06T08:01:38;2.33;;;1.25;;
2548;SDS011;1284;53.520;10.248;2023-08-06T08:04:04;1.73;;;1.00;;
2548;SDS011;1284;53.520;10.248;2023-08-06T08:06:30;2.63;;;1.40;;
2548;SDS011;1284;53.520;10.248;2023-08-06T08:08:55;2.25;;;1.13;;
2548;SDS011;1284;53.520;10.248;2023-08-06T08:11:21;1.70;;;1.00;;
2548;SDS011;1284;53.520;10.248;2023-08-06T08:13:46;7.00;;;1.83;;
2548;SDS011;1284;53.520;10.248;2023-08-06T08:16:12;1.30;;;0.82;;
2548;SDS011;1284;53.520;10.248;2023-08-06T08:18:37;2.70;;;1.23;;
2548;SDS011;1284;53.520;10.248;2023-08-06T08:21:02;2.03;;;1.20;;
2548;SDS011;1284;53.520;10.248;2023-08-06T08:23:28;2.30;;;1.23;;
2548;SDS011;1284;53.520;10.248;2023-08-06T08:25:53;3.88;;;1.33;;
2548;SDS011;1284;53.520;10.248;2023-08-06T08:28:19;3.60;;;1.23;;
2548;SDS011;1284;53.520;10.248;2023-08-06T08:30:45;2.50;;;1.13;;
2548;SDS011;1284;53.520;10.248;2023-08-06T08:33:10;2.35;;;1.02;;
2548;SDS011;1284;53.520;10.248;2023-08-06T08:35:36;2.92;;;1.70;;
2548;SDS011;1284;53.520;10.248;2023-08-06T08:38:01;3.78;;;1.40;;
2548;SDS011;1284;53.520;10.248;2023-08-06T08:40:29;1.67;;;1.13;;
2548;SDS011;1284;53.520;10.248;2023-08-06T08:42:57;3.30;;;1.30;;
2548;SDS011;1284;53.520;10.248;2023-08-06T08:45:23;3.20;;;1.20;;
2548;SDS011;1284;53.520;10.248;2023-08-06T08:47:51;1.98;;;1.13;;
2548;SDS011;1284;53.520;10.248;2023-08-06T08:50:17;2.45;;;1.40;;
2548;SDS011;1284;53.520;10.248;2023-08-06T08:52:44;2.60;;;1.60;;
2548;SDS011;1284;53.520;10.248;2023-08-06T08:55:11;2.55;;;1.33;;
2548;SDS011;1284;53.520;10.248;2023-08-06T08:57:39;1.98;;;1.13;;
2548;SDS011;1284;53.520;10.248;2023-08-06T09:00:04;3.03;;;1.50;;
2548;SDS011;1284;53.520;10.248;2023-08-06T09:02:30;2.45;;;1.45;;
2548;SDS011;1284;53.520;10.248;2023-08-06T09:04:58;2.08;;;1.17;;
2548;SDS011;1284;53.520;10.248;2023-08-06T09:07:27;4.13;;;2.15;;
2548;SDS011;1284;53.520;10.248;2023-08-06T09:09:56;1.77;;;1.25;;
2548;SDS011;1284;53.520;10.248;2023-08-06T09:12:27;1.85;;;1.23;;
2548;SDS011;1284;53.520;10.248;2023-08-06T09:14:53;1.70;;;1.20;;
2548;SDS011;1284;53.520;10.248;2023-08-06T09:17:19;1.88;;;1.25;;
2548;SDS011;1284;53.520;10.248;2023-08-06T09:19:45;2.30;;;1.35;;
2548;SDS011;1284;53.520;10.248;2023-08-06T09:22:13;3.78;;;1.73;;
2548;SDS011;1284;53.520;10.248;2023-08-06T09:24:42;3.42;;;1.88;;
2548;SDS011;1284;53.520;10.248;2023-08-06T09:27:11;5.63;;;1.98;;
2548;SDS011;1284;53.520;10.248;2023-08-06T09:29:45;8.52;;;1.77;;
2548;SDS011;1284;53.520;10.248;2023-08-06T09:32:14;6.63;;;1.67;;
2548;SDS011;1284;53.520;10.248;2023-08-06T09:34:41;3.20;;;1.92;;
2548;SDS011;1284;53.520;10.248;2023-08-06T09:37:08;2.05;;;1.55;;
2548;SDS011;1284;53.520;10.248;2023-08-06T09:39:38;2.55;;;1.70;;
2548;SDS011;1284;53.520;10.248;2023-08-06T09:42:04;3.58;;;1.92;;
2548;SDS011;1284;53.520;10.248;2023-08-06T09:44:31;3.13;;;1.58;;
2548;SDS011;1284;53.520;10.248;2023-08-06T09:46:57;3.03;;;1.95;;
2548;SDS011;1284;53.520;10.248;2023-08-06T09:49:27;2.65;;;1.60;;
2548;SDS011;1284;53.520;10.248;2023-08-06T09:51:58;3.08;;;1.85;;
2548;SDS011;1284;53.520;10.248;2023-08-06T09:54:25;2.00;;;1.45;;
2548;SDS011;1284;53.520;10.248;2023-08-06T09:56:55;3.38;;;1.73;;
2548;SDS011;1284;53.520;10.248;2023-08-06T09:59:22;3.03;;;1.80;;
2548;SDS011;1284;53.520;10.248;2023-08-06T10:01:49;2.10;;;1.50;;
2548;SDS011;1284;53.520;10.248;2023-08-06T10:04:14;3.08;;;1.75;;
2548;SDS011;1284;53.520;10.248;2023-08-06T10:06:41;2.05;;;1.35;;
2548;SDS011;1284;53.520;10.248;2023-08-06T10:09:07;2.28;;;1.30;;
2548;SDS011;1284;53.520;10.248;2023-08-06T10:11:34;2.17;;;1.40;;
2548;SDS011;1284;53.520;10.248;2023-08-06T10:14:04;4.18;;;1.75;;
2548;SDS011;1284;53.520;10.248;2023-08-06T10:16:51;2.50;;;1.50;;
2548;SDS011;1284;53.520;10.248;2023-08-06T10:19:17;2.20;;;1.38;;
2548;SDS011;1284;53.520;10.248;2023-08-06T10:24:47;5.55;;;1.35;;
2548;SDS011;1284;53.520;10.248;2023-08-06T10:27:29;3.22;;;1.48;;
2548;SDS011;1284;53.520;10.248;2023-08-06T10:30:20;1.85;;;1.10;;
2548;SDS011;1284;53.520;10.248;2023-08-06T10:32:56;2.63;;;1.48;;
2548;SDS011;1284;53.520;10.248;2023-08-06T10:35:28;3.97;;;1.60;;
2548;SDS011;1284;53.520;10.248;2023-08-06T10:37:58;2.30;;;1.45;;
2548;SDS011;1284;53.520;10.248;2023-08-06T10:40:29;2.28;;;1.40;;
2548;SDS011;1284;53.520;10.248;2023-08-06T10:42:58;2.92;;;1.23;;
2548;SDS011;1284;53.520;10.248;2023-08-06T10:45:24;3.67;;;1.58;;
2548;SDS011;1284;53.520;10.248;2023-08-06T10:47:53;2.55;;;1.30;;
2548;SDS011;1284;53.520;10.248;2023-08-06T10:50:20;2.05;;;1.10;;
2548;SDS011;1284;53.520;10.248;2023-08-06T10:52:46;1.83;;;1.05;;
2548;SDS011;1284;53.520;10.248;2023-08-06T10:55:22;2.22;;;1.27;;
2548;SDS011;1284;53.520;10.248;2023-08-06T10:57:49;3.67;;;1.70;;
2548;SDS011;1284;53.520;10.248;2023-08-06T11:00:15;3.72;;;1.45;;
2548;SDS011;1284;53.520;10.248;2023-08-06T11:02:41;1.92;;;1.33;;
2548;SDS011;1284;53.520;10.248;2023-08-06T11:05:09;1.90;;;1.40;;
2548;SDS011;1284;53.520;10.248;2023-08-06T11:07:36;2.67;;;1.70;;
2548;SDS011;1284;53.520;10.248;2023-08-06T11:10:06;2.38;;;1.27;;
2548;SDS011;1284;53.520;10.248;2023-08-06T11:12:33;1.67;;;1.20;;
2548;SDS011;1284;53.520;10.248;2023-08-06T11:14:59;1.77;;;1.13;;
2548;SDS011;1284;53.520;10.248;2023-08-06T11:17:29;1.95;;;1.25;;
2548;SDS011;1284;53.520;10.248;2023-08-06T11:19:59;2.70;;;1.58;;
2548;SDS011;1284;53.520;10.248;2023-08-06T11:22:25;6.47;;;1.77;;
2548;SDS011;1284;53.520;10.248;2023-08-06T11:24:52;2.05;;;1.40;;
2548;SDS011;1284;53.520;10.248;2023-08-06T11:27:18;1.73;;;1.33;;
2548;SDS011;1284;53.520;10.248;2023-08-06T11:29:44;3.55;;;1.55;;
2548;SDS011;1284;53.520;10.248;2023-08-06T11:32:10;2.05;;;1.30;;
2548;SDS011;1284;53.520;10.248;2023-08-06T11:34:38;1.77;;;1.20;;
2548;SDS011;1284;53.520;10.248;2023-08-06T11:37:05;1.60;;;1.17;;
2548;SDS011;1284;53.520;10.248;2023-08-06T11:39:35;2.45;;;1.50;;
2548;SDS011;1284;53.520;10.248;2023-08-06T11:42:05;1.85;;;1.17;;
2548;SDS011;1284;53.520;10.248;2023-08-06T11:44:51;2.00;;;1.25;;
2548;SDS011;1284;53.520;10.248;2023-08-06T11:47:17;1.60;;;1.17;;
2548;SDS011;1284;53.520;10.248;2023-08-06T11:49:44;3.38;;;1.52;;
2548;SDS011;1284;53.520;10.248;2023-08-06T11:52:17;2.65;;;1.52;;
2548;SDS011;1284;53.520;10.248;2023-08-06T11:54:45;1.77;;;1.30;;
2548;SDS011;1284;53.520;10.248;2023-08-06T11:57:37;2.55;;;1.42;;
2548;SDS011;1284;53.520;10.248;2023-08-06T12:00:09;3.17;;;1.30;;
2548;SDS011;1284;53.520;10.248;2023-08-06T12:02:43;2.33;;;1.50;;
2548;SDS011;1284;53.520;10.248;2023-08-06T12:05:11;2.38;;;1.27;;
2548;SDS011;1284;53.520;10.248;2023-08-06T12:07:38;2.95;;;1.50;;
2548;SDS011;1284;53.520;10.248;2023-08-06T12:10:06;3.80;;;1.77;;
2548;SDS011;1284;53.520;10.248;2023-08-06T12:12:31;3.28;;;1.88;;
2548;SDS011;1284;53.520;10.248;2023-08-06T12:14:57;3.25;;;2.22;;
2548;SDS011;1284;53.520;10.248;2023-08-06T12:17:23;2.80;;;1.45;;
2548;SDS011;1284;53.520;10.248;2023-08-06T12:19:49;2.08;;;1.25;;
2548;SDS011;1284;53.520;10.248;2023-08-06T12:22:15;1.77;;;1.42;;
2548;SDS011;1284;53.520;10.248;2023-08-06T12:24:42;1.77;;;1.13;;
2548;SDS011;1284;53.520;10.248;2023-08-06T12:27:08;2.72;;;1.48;;
2548;SDS011;1284;53.520;10.248;2023-08-06T12:29:34;3.17;;;1.85;;
2548;SDS011;1284;53.520;10.248;2023-08-06T12:31:59;2.47;;;1.33;;
2548;SDS011;1284;53.520;10.248;2023-08-06T12:34:24;3.17;;;1.55;;
2548;SDS011;1284;53.520;10.248;2023-08-06T12:36:50;2.85;;;1.85;;
2548;SDS011;1284;53.520;10.248;2023-08-06T12:39:15;3.28;;;1.40;;
2548;SDS011;1284;53.520;10.248;2023-08-06T12:41:41;3.75;;;1.80;;
2548;SDS011;1284;53.520;10.248;2023-08-06T12:44:08;3.40;;;2.00;;
2548;SDS011;1284;53.520;10.248;2023-08-06T12:46:34;3.92;;;2.45;;
2548;SDS011;1284;53.520;10.248;2023-08-06T12:48:59;2.90;;;2.00;;
2548;SDS011;1284;53.520;10.248;2023-08-06T12:51:25;3.00;;;1.77;;
2548;SDS011;1284;53.520;10.248;2023-08-06T12:53:50;2.22;;;1.45;;
2548;SDS011;1284;53.520;10.248;2023-08-06T12:56:15;1.90;;;1.50;;
2548;SDS011;1284;53.520;10.248;2023-08-06T12:58:41;2.22;;;1.70;;
2548;SDS011;1284;53.520;10.248;2023-08-06T13:01:07;2.78;;;1.65;;
2548;SDS011;1284;53.520;10.248;2023-08-06T13:03:33;2.92;;;1.70;;
2548;SDS011;1284;53.520;10.248;2023-08-06T13:05:58;2.38;;;1.42;;
2548;SDS011;1284;53.520;10.248;2023-08-06T13:08:24;2.58;;;1.48;;
2548;SDS011;1284;53.520;10.248;2023-08-06T13:10:49;4.85;;;1.85;;
2548;SDS011;1284;53.520;10.248;2023-08-06T13:13:15;2.70;;;1.40;;
2548;SDS011;1284;53.520;10.248;2023-08-06T13:15:40;2.65;;;1.50;;
2548;SDS011;1284;53.520;10.248;2023-08-06T13:18:06;2.28;;;1.30;;
2548;SDS011;1284;53.520;10.248;2023-08-06T13:20:31;2.63;;;1.75;;
2548;SDS011;1284;53.520;10.248;2023-08-06T13:22:57;2.97;;;1.52;;
2548;SDS011;1284;53.520;10.248;2023-08-06T13:25:23;2.30;;;1.17;;
2548;SDS011;1284;53.520;10.248;2023-08-06T13:27:50;2.47;;;1.50;;
2548;SDS011;1284;53.520;10.248;2023-08-06T13:30:16;2.55;;;1.38;;
2548;SDS011;1284;53.520;10.248;2023-08-06T13:32:43;2.72;;;1.27;;
2548;SDS011;1284;53.520;10.248;2023-08-06T13:35:09;3.40;;;1.40;;
2548;SDS011;1284;53.520;10.248;2023-08-06T13:37:35;2.67;;;1.92;;
2548;SDS011;1284;53.520;10.248;2023-08-06T13:40:00;4.90;;;1.80;;
2548;SDS011;1284;53.520;10.248;2023-08-06T13:42:25;2.95;;;1.70;;
2548;SDS011;1284;53.520;10.248;2023-08-06T13:44:51;5.20;;;2.00;;
2548;SDS011;1284;53.520;10.248;2023-08-06T13:47:16;3.38;;;1.60;;
2548;SDS011;1284;53.520;10.248;2023-08-06T13:49:42;2.70;;;1.80;;
2548;SDS011;1284;53.520;10.248;2023-08-06T13:52:07;3.22;;;1.77;;
2548;SDS011;1284;53.520;10.248;2023-08-06T13:54:33;5.95;;;1.88;;
2548;SDS011;1284;53.520;10.248;2023-08-06T13:56:58;2.03;;;1.42;;
2548;SDS011;1284;53.520;10.248;2023-08-06T13:59:23;2.15;;;1.55;;
2548;SDS011;1284;53.520;10.248;2023-08-06T14:01:49;2.47;;;1.55;;
2548;SDS011;1284;53.520;10.248;2023-08-06T14:04:15;3.55;;;1.90;;
2548;SDS011;1284;53.520;10.248;2023-08-06T14:06:41;3.45;;;1.58;;
2548;SDS011;1284;53.520;10.248;2023-08-06T14:09:06;3.00;;;1.58;;
2548;SDS011;1284;53.520;10.248;2023-08-06T14:11:32;4.38;;;1.83;;
2548;SDS011;1284;53.520;10.248;2023-08-06T14:13:59;3.80;;;1.52;;
2548;SDS011;1284;53.520;10.248;2023-08-06T14:16:25;2.63;;;1.35;;
2548;SDS011;1284;53.520;10.248;2023-08-06T14:18:50;3.80;;;1.73;;
2548;SDS011;1284;53.520;10.248;2023-08-06T14:21:16;4.32;;;1.55;;
2548;SDS011;1284;53.520;10.248;2023-08-06T14:23:41;2.45;;;1.63;;
2548;SDS011;1284;53.520;10.248;2023-08-06T14:26:07;1.65;;;1.20;;
2548;SDS011;1284;53.520;10.248;2023-08-06T14:28:32;2.72;;;1.40;;
2548;SDS011;1284;53.520;10.248;2023-08-06T14:30:58;1.23;;;0.98;;
2548;SDS011;1284;53.520;10.248;2023-08-06T14:33:23;1.77;;;0.70;;
2548;SDS011;1284;53.520;10.248;2023-08-06T14:35:49;2.08;;;1.25;;
2548;SDS011;1284;53.520;10.248;2023-08-06T14:38:15;2.05;;;0.80;;
2548;SDS011;1284;53.520;10.248;2023-08-06T14:40:40;0.85;;;0.63;;
2548;SDS011;1284;53.520;10.248;2023-08-06T14:43:06;2.10;;;0.65;;
2548;SDS011;1284;53.520;10.248;2023-08-06T14:45:31;1.50;;;0.80;;
2548;SDS011;1284;53.520;10.248;2023-08-06T14:48:17;1.58;;;0.70;;
2548;SDS011;1284;53.520;10.248;2023-08-06T14:50:42;1.67;;;1.00;;
2548;SDS011;1284;53.520;10.248;2023-08-06T14:53:10;0.80;;;0.80;;
2548;SDS011;1284;53.520;10.248;2023-08-06T14:55:37;2.30;;;0.90;;
2548;SDS011;1284;53.520;10.248;2023-08-06T14:58:02;1.30;;;0.77;;
2548;SDS011;1284;53.520;10.248;2023-08-06T15:00:28;4.55;;;1.13;;
2548;SDS011;1284;53.520;10.248;2023-08-06T15:02:53;1.92;;;0.60;;
2548;SDS011;1284;53.520;10.248;2023-08-06T15:05:19;2.90;;;1.20;;
2548;SDS011;1284;53.520;10.248;2023-08-06T15:07:44;3.00;;;1.17;;
2548;SDS011;1284;53.520;10.248;2023-08-06T15:10:10;0.82;;;0.70;;